sensor_id;sensor_type;location;lat;lon;timestamp;P1;durP1;ratioP1;P2;durP2;ratioP2
71080;SDS011;58740;50.672;18.690;2023-07-09T00:02:13;12.50;;;7.00;;
71080;SDS011;58740;50.672;18.690;2023-07-09T00:04:42;10.00;;;6.00;;
71080;SDS011;58740;50.672;18.690;2023-07-09T00:07:24;12.60;;;5.70;;
71080;SDS011;58740;50.672;18.690;2023-07-09T00:09:55;9.50;;;6.00;;
71080;SDS011;58740;50.672;18.690;2023-07-09T00:12:25;14.40;;;6.00;;
71080;SDS011;58740;50.672;18.690;2023-07-09T00:14:53;12.40;;;5.40;;
71080;SDS011;58740;50.672;18.690;2023-07-09T00:17:32;11.60;;;6.30;;
71080;SDS011;58740;50.672;18.690;2023-07-09T00:20:03;11.60;;;6.40;;
71080;SDS011;58740;50.672;18.690;2023-07-09T00:22:41;13.60;;;6.50;;
71080;SDS011;58740;50.672;18.690;2023-07-09T00:25:15;12.20;;;6.90;;
71080;SDS011;58740;50.672;18.690;2023-07-09T00:27:44;10.20;;;6.40;;
71080;SDS011;58740;50.672;18.690;2023-07-09T00:30:18;10.30;;;6.50;;
71080;SDS011;58740;50.672;18.690;2023-07-09T00:32:50;12.10;;;8.00;;
71080;SDS011;58740;50.672;18.690;2023-07-09T00:35:22;13.80;;;7.30;;
71080;SDS011;58740;50.672;18.690;2023-07-09T00:37:51;10.30;;;6.30;;
71080;SDS011;58740;50.672;18.690;2023-07-09T00:40:21;11.60;;;7.10;;
71080;SDS011;58740;50.672;18.690;2023-07-09T00:42:53;10.70;;;7.10;;
71080;SDS011;58740;50.672;18.690;2023-07-09T00:45:26;12.20;;;7.10;;
71080;SDS011;58740;50.672;18.690;2023-07-09T00:47:58;10.50;;;6.80;;
71080;SDS011;58740;50.672;18.690;2023-07-09T00:50:52;12.80;;;7.30;;
71080;SDS011;58740;50.672;18.690;2023-07-09T00:53:25;10.90;;;7.30;;
71080;SDS011;58740;50.672;18.690;2023-07-09T00:56:04;13.00;;;7.80;;
71080;SDS011;58740;50.672;18.690;2023-07-09T00:58:38;13.70;;;7.50;;
71080;SDS011;58740;50.672;18.690;2023-07-09T01:01:09;14.40;;;7.30;;
71080;SDS011;58740;50.672;18.690;2023-07-09T01:03:44;9.00;;;6.50;;
71080;SDS011;58740;50.672;18.690;2023-07-09T01:06:19;11.00;;;6.50;;
71080;SDS011;58740;50.672;18.690;2023-07-09T01:08:53;11.60;;;7.60;;
71080;SDS011;58740;50.672;18.690;2023-07-09T01:11:22;13.10;;;7.30;;
71080;SDS011;58740;50.672;18.690;2023-07-09T01:13:55;10.40;;;6.60;;
71080;SDS011;58740;50.672;18.690;2023-07-09T01:16:30;11.00;;;7.30;;
71080;SDS011;58740;50.672;18.690;2023-07-09T01:19:02;11.00;;;6.60;;
71080;SDS011;58740;50.672;18.690;2023-07-09T01:21:32;12.00;;;7.50;;
71080;SDS011;58740;50.672;18.690;2023-07-09T01:24:12;11.90;;;7.60;;
71080;SDS011;58740;50.672;18.690;2023-07-09T01:26:42;13.90;;;9.10;;
71080;SDS011;58740;50.672;18.690;2023-07-09T01:29:11;12.10;;;7.90;;
71080;SDS011;58740;50.672;18.690;2023-07-09T01:31:39;11.60;;;7.50;;
71080;SDS011;58740;50.672;18.690;2023-07-09T01:34:08;10.50;;;7.00;;
71080;SDS011;58740;50.672;18.690;2023-07-09T01:36:40;10.90;;;6.70;;
71080;SDS011;58740;50.672;18.690;2023-07-09T01:39:08;14.30;;;7.60;;
71080;SDS011;58740;50.672;18.690;2023-07-09T01:41:37;16.20;;;7.50;;
71080;SDS011;58740;50.672;18.690;2023-07-09T01:44:05;12.80;;;7.30;;
71080;SDS011;58740;50.672;18.690;2023-07-09T01:46:39;12.10;;;7.70;;
71080;SDS011;58740;50.672;18.690;2023-07-09T01:49:15;13.70;;;7.50;;
71080;SDS011;58740;50.672;18.690;2023-07-09T01:51:44;12.40;;;7.70;;
71080;SDS011;58740;50.672;18.690;2023-07-09T01:54:15;13.60;;;7.50;;
71080;SDS011;58740;50.672;18.690;2023-07-09T01:56:44;11.50;;;7.60;;
71080;SDS011;58740;50.672;18.690;2023-07-09T01:59:12;13.70;;;7.00;;
71080;SDS011;58740;50.672;18.690;2023-07-09T02:01:41;13.80;;;7.30;;
71080;SDS011;58740;50.672;18.690;2023-07-09T02:04:09;13.60;;;7.80;;
71080;SDS011;58740;50.672;18.690;2023-07-09T02:06:38;11.20;;;7.70;;
71080;SDS011;58740;50.672;18.690;2023-07-09T02:09:06;12.60;;;7.70;;
71080;SDS011;58740;50.672;18.690;2023-07-09T02:11:33;11.40;;;6.90;;
71080;SDS011;58740;50.672;18.690;2023-07-09T02:14:01;10.40;;;7.30;;
71080;SDS011;58740;50.672;18.690;2023-07-09T02:16:29;10.50;;;7.00;;
71080;SDS011;58740;50.672;18.690;2023-07-09T02:18:57;11.80;;;7.30;;
71080;SDS011;58740;50.672;18.690;2023-07-09T02:21:25;11.40;;;7.40;;
71080;SDS011;58740;50.672;18.690;2023-07-09T02:23:57;13.00;;;7.10;;
71080;SDS011;58740;50.672;18.690;2023-07-09T02:26:25;14.40;;;8.00;;
71080;SDS011;58740;50.672;18.690;2023-07-09T02:28:52;12.80;;;7.70;;
71080;SDS011;58740;50.672;18.690;2023-07-09T02:31:20;15.10;;;7.80;;
71080;SDS011;58740;50.672;18.690;2023-07-09T02:33:48;12.80;;;7.10;;
71080;SDS011;58740;50.672;18.690;2023-07-09T02:36:18;14.30;;;8.20;;
71080;SDS011;58740;50.672;18.690;2023-07-09T02:38:46;10.30;;;7.20;;
71080;SDS011;58740;50.672;18.690;2023-07-09T02:41:14;12.50;;;8.00;;
71080;SDS011;58740;50.672;18.690;2023-07-09T02:43:41;10.60;;;7.20;;
71080;SDS011;58740;50.672;18.690;2023-07-09T02:46:09;13.00;;;7.80;;
71080;SDS011;58740;50.672;18.690;2023-07-09T02:48:37;12.90;;;7.80;;
71080;SDS011;58740;50.672;18.690;2023-07-09T02:51:05;10.90;;;7.20;;
71080;SDS011;58740;50.672;18.690;2023-07-09T02:53:33;12.40;;;8.30;;
71080;SDS011;58740;50.672;18.690;2023-07-09T02:56:01;12.30;;;8.70;;
71080;SDS011;58740;50.672;18.690;2023-07-09T02:58:33;15.40;;;8.50;;
71080;SDS011;58740;50.672;18.690;2023-07-09T03:01:05;12.70;;;8.30;;
71080;SDS011;58740;50.672;18.690;2023-07-09T03:03:45;13.60;;;8.40;;
71080;SDS011;58740;50.672;18.690;2023-07-09T03:06:37;14.30;;;8.20;;
71080;SDS011;58740;50.672;18.690;2023-07-09T03:09:40;15.70;;;9.20;;
71080;SDS011;58740;50.672;18.690;2023-07-09T03:12:12;13.90;;;8.20;;
71080;SDS011;58740;50.672;18.690;2023-07-09T03:14:56;11.40;;;8.20;;
71080;SDS011;58740;50.672;18.690;2023-07-09T03:18:08;11.70;;;7.40;;
71080;SDS011;58740;50.672;18.690;2023-07-09T03:20:56;14.60;;;8.10;;
71080;SDS011;58740;50.672;18.690;2023-07-09T03:23:26;12.30;;;9.00;;
71080;SDS011;58740;50.672;18.690;2023-07-09T03:25:55;15.80;;;9.80;;
71080;SDS011;58740;50.672;18.690;2023-07-09T03:28:25;15.60;;;9.30;;
71080;SDS011;58740;50.672;18.690;2023-07-09T03:31:14;12.20;;;9.60;;
71080;SDS011;58740;50.672;18.690;2023-07-09T03:33:47;15.80;;;9.80;;
71080;SDS011;58740;50.672;18.690;2023-07-09T03:36:17;13.60;;;9.20;;
71080;SDS011;58740;50.672;18.690;2023-07-09T03:38:47;11.80;;;8.60;;
71080;SDS011;58740;50.672;18.690;2023-07-09T03:41:37;12.00;;;8.70;;
71080;SDS011;58740;50.672;18.690;2023-07-09T03:44:27;13.10;;;8.60;;
71080;SDS011;58740;50.672;18.690;2023-07-09T03:47:35;12.10;;;9.00;;
71080;SDS011;58740;50.672;18.690;2023-07-09T03:50:06;15.50;;;8.80;;
71080;SDS011;58740;50.672;18.690;2023-07-09T03:53:08;13.50;;;8.50;;
71080;SDS011;58740;50.672;18.690;2023-07-09T03:56:05;14.70;;;9.70;;
71080;SDS011;58740;50.672;18.690;2023-07-09T03:58:33;12.70;;;9.70;;
71080;SDS011;58740;50.672;18.690;2023-07-09T04:01:00;14.70;;;9.70;;
71080;SDS011;58740;50.672;18.690;2023-07-09T04:03:49;15.90;;;9.70;;
71080;SDS011;58740;50.672;18.690;2023-07-09T04:06:21;12.90;;;8.80;;
71080;SDS011;58740;50.672;18.690;2023-07-09T04:08:49;14.10;;;8.70;;
71080;SDS011;58740;50.672;18.690;2023-07-09T04:11:17;14.40;;;8.80;;
71080;SDS011;58740;50.672;18.690;2023-07-09T04:13:49;13.60;;;9.50;;
71080;SDS011;58740;50.672;18.690;2023-07-09T04:16:17;12.50;;;9.00;;
71080;SDS011;58740;50.672;18.690;2023-07-09T04:18:45;14.90;;;8.90;;
71080;SDS011;58740;50.672;18.690;2023-07-09T04:21:12;12.90;;;9.30;;
71080;SDS011;58740;50.672;18.690;2023-07-09T04:23:40;13.70;;;9.30;;
71080;SDS011;58740;50.672;18.690;2023-07-09T04:26:12;14.80;;;10.10;;
71080;SDS011;58740;50.672;18.690;2023-07-09T04:28:42;11.90;;;9.80;;
71080;SDS011;58740;50.672;18.690;2023-07-09T04:31:09;14.20;;;9.40;;
71080;SDS011;58740;50.672;18.690;2023-07-09T04:33:37;15.30;;;10.20;;
71080;SDS011;58740;50.672;18.690;2023-07-09T04:36:05;14.10;;;9.80;;
71080;SDS011;58740;50.672;18.690;2023-07-09T04:38:34;12.80;;;9.20;;
71080;SDS011;58740;50.672;18.690;2023-07-09T04:41:02;14.20;;;10.20;;
71080;SDS011;58740;50.672;18.690;2023-07-09T04:43:30;14.60;;;9.90;;
71080;SDS011;58740;50.672;18.690;2023-07-09T04:45:59;16.50;;;9.50;;
71080;SDS011;58740;50.672;18.690;2023-07-09T04:48:27;14.50;;;10.70;;
71080;SDS011;58740;50.672;18.690;2023-07-09T04:50:55;15.00;;;10.40;;
71080;SDS011;58740;50.672;18.690;2023-07-09T04:53:28;15.40;;;10.90;;
71080;SDS011;58740;50.672;18.690;2023-07-09T04:55:56;12.10;;;9.20;;
71080;SDS011;58740;50.672;18.690;2023-07-09T04:58:24;12.50;;;9.50;;
71080;SDS011;58740;50.672;18.690;2023-07-09T05:00:52;14.00;;;9.40;;
71080;SDS011;58740;50.672;18.690;2023-07-09T05:03:25;13.60;;;9.50;;
71080;SDS011;58740;50.672;18.690;2023-07-09T05:05:53;13.80;;;9.70;;
71080;SDS011;58740;50.672;18.690;2023-07-09T05:08:20;12.90;;;8.90;;
71080;SDS011;58740;50.672;18.690;2023-07-09T05:10:51;11.30;;;8.70;;
71080;SDS011;58740;50.672;18.690;2023-07-09T05:13:20;12.90;;;9.30;;
71080;SDS011;58740;50.672;18.690;2023-07-09T05:15:48;12.10;;;8.90;;
71080;SDS011;58740;50.672;18.690;2023-07-09T05:18:17;13.30;;;8.60;;
71080;SDS011;58740;50.672;18.690;2023-07-09T05:20:46;11.40;;;8.60;;
71080;SDS011;58740;50.672;18.690;2023-07-09T05:23:16;12.60;;;8.20;;
71080;SDS011;58740;50.672;18.690;2023-07-09T05:26:04;13.10;;;8.40;;
71080;SDS011;58740;50.672;18.690;2023-07-09T05:28:54;12.70;;;7.90;;
71080;SDS011;58740;50.672;18.690;2023-07-09T05:31:49;11.20;;;8.30;;
71080;SDS011;58740;50.672;18.690;2023-07-09T05:34:47;10.90;;;8.20;;
71080;SDS011;58740;50.672;18.690;2023-07-09T05:37:15;12.80;;;7.10;;
71080;SDS011;58740;50.672;18.690;2023-07-09T05:39:46;11.60;;;6.90;;
71080;SDS011;58740;50.672;18.690;2023-07-09T05:42:14;10.30;;;7.20;;
71080;SDS011;58740;50.672;18.690;2023-07-09T05:44:47;11.50;;;7.50;;
71080;SDS011;58740;50.672;18.690;2023-07-09T05:47:47;12.20;;;7.00;;
71080;SDS011;58740;50.672;18.690;2023-07-09T05:50:15;9.70;;;6.90;;
71080;SDS011;58740;50.672;18.690;2023-07-09T05:53:04;9.60;;;6.90;;
71080;SDS011;58740;50.672;18.690;2023-07-09T05:55:32;9.20;;;6.90;;
71080;SDS011;58740;50.672;18.690;2023-07-09T05:58:02;10.10;;;6.40;;
71080;SDS011;58740;50.672;18.690;2023-07-09T06:00:54;10.10;;;6.10;;
71080;SDS011;58740;50.672;18.690;2023-07-09T06:03:26;8.90;;;5.80;;
71080;SDS011;58740;50.672;18.690;2023-07-09T06:05:56;9.40;;;6.10;;
71080;SDS011;58740;50.672;18.690;2023-07-09T06:08:34;8.90;;;5.80;;
71080;SDS011;58740;50.672;18.690;2023-07-09T06:11:04;8.90;;;5.70;;
71080;SDS011;58740;50.672;18.690;2023-07-09T06:13:39;9.50;;;4.90;;
71080;SDS011;58740;50.672;18.690;2023-07-09T06:16:08;7.90;;;5.40;;
71080;SDS011;58740;50.672;18.690;2023-07-09T06:18:36;9.60;;;5.30;;
71080;SDS011;58740;50.672;18.690;2023-07-09T06:21:04;7.90;;;5.80;;
71080;SDS011;58740;50.672;18.690;2023-07-09T06:23:32;8.00;;;5.50;;
71080;SDS011;58740;50.672;18.690;2023-07-09T06:25:59;11.10;;;5.80;;
71080;SDS011;58740;50.672;18.690;2023-07-09T06:28:28;7.80;;;5.30;;
71080;SDS011;58740;50.672;18.690;2023-07-09T06:30:58;11.10;;;6.00;;
71080;SDS011;58740;50.672;18.690;2023-07-09T06:33:27;8.50;;;5.90;;
71080;SDS011;58740;50.672;18.690;2023-07-09T06:35:58;10.60;;;5.40;;
71080;SDS011;58740;50.672;18.690;2023-07-09T06:38:28;9.10;;;5.20;;
71080;SDS011;58740;50.672;18.690;2023-07-09T06:40:57;7.50;;;5.00;;
71080;SDS011;58740;50.672;18.690;2023-07-09T06:43:25;7.50;;;5.20;;
71080;SDS011;58740;50.672;18.690;2023-07-09T06:45:58;11.40;;;5.70;;
71080;SDS011;58740;50.672;18.690;2023-07-09T06:48:29;8.30;;;5.30;;
71080;SDS011;58740;50.672;18.690;2023-07-09T06:50:58;8.50;;;5.60;;
71080;SDS011;58740;50.672;18.690;2023-07-09T06:53:28;9.00;;;5.10;;
71080;SDS011;58740;50.672;18.690;2023-07-09T06:55:57;8.70;;;4.40;;
71080;SDS011;58740;50.672;18.690;2023-07-09T06:58:29;7.60;;;4.30;;
71080;SDS011;58740;50.672;18.690;2023-07-09T07:01:02;7.70;;;4.10;;
71080;SDS011;58740;50.672;18.690;2023-07-09T07:03:33;6.50;;;4.30;;
71080;SDS011;58740;50.672;18.690;2023-07-09T07:06:02;7.00;;;4.60;;
71080;SDS011;58740;50.672;18.690;2023-07-09T07:08:31;8.10;;;5.30;;
71080;SDS011;58740;50.672;18.690;2023-07-09T07:11:02;7.30;;;4.40;;
71080;SDS011;58740;50.672;18.690;2023-07-09T07:13:36;7.40;;;4.90;;
71080;SDS011;58740;50.672;18.690;2023-07-09T07:16:10;8.00;;;4.50;;
71080;SDS011;58740;50.672;18.690;2023-07-09T07:18:41;6.90;;;3.50;;
71080;SDS011;58740;50.672;18.690;2023-07-09T07:21:09;7.10;;;4.00;;
71080;SDS011;58740;50.672;18.690;2023-07-09T07:23:37;5.90;;;3.60;;
71080;SDS011;58740;50.672;18.690;2023-07-09T07:26:05;7.50;;;3.70;;
71080;SDS011;58740;50.672;18.690;2023-07-09T07:28:36;6.00;;;3.70;;
71080;SDS011;58740;50.672;18.690;2023-07-09T07:31:08;7.50;;;3.90;;
71080;SDS011;58740;50.672;18.690;2023-07-09T07:33:39;7.80;;;4.20;;
71080;SDS011;58740;50.672;18.690;2023-07-09T07:36:09;6.60;;;3.70;;
71080;SDS011;58740;50.672;18.690;2023-07-09T07:38:40;6.50;;;4.00;;
71080;SDS011;58740;50.672;18.690;2023-07-09T07:41:08;6.60;;;4.40;;
71080;SDS011;58740;50.672;18.690;2023-07-09T07:43:36;7.60;;;3.80;;
71080;SDS011;58740;50.672;18.690;2023-07-09T07:46:04;6.00;;;3.70;;
71080;SDS011;58740;50.672;18.690;2023-07-09T07:48:32;6.40;;;3.60;;
71080;SDS011;58740;50.672;18.690;2023-07-09T07:51:01;9.00;;;4.20;;
71080;SDS011;58740;50.672;18.690;2023-07-09T07:53:31;5.90;;;3.10;;
71080;SDS011;58740;50.672;18.690;2023-07-09T07:55:59;5.70;;;3.60;;
71080;SDS011;58740;50.672;18.690;2023-07-09T07:58:31;6.50;;;3.50;;
71080;SDS011;58740;50.672;18.690;2023-07-09T08:00:59;6.80;;;3.80;;
71080;SDS011;58740;50.672;18.690;2023-07-09T08:03:28;6.70;;;3.50;;
71080;SDS011;58740;50.672;18.690;2023-07-09T08:05:56;5.80;;;3.00;;
71080;SDS011;58740;50.672;18.690;2023-07-09T08:08:28;5.80;;;3.70;;
71080;SDS011;58740;50.672;18.690;2023-07-09T08:11:05;5.60;;;3.30;;
71080;SDS011;58740;50.672;18.690;2023-07-09T08:13:36;6.20;;;3.70;;
71080;SDS011;58740;50.672;18.690;2023-07-09T08:16:05;5.80;;;3.60;;
71080;SDS011;58740;50.672;18.690;2023-07-09T08:18:35;6.70;;;3.40;;
71080;SDS011;58740;50.672;18.690;2023-07-09T08:21:04;7.10;;;3.90;;
71080;SDS011;58740;50.672;18.690;2023-07-09T08:23:32;6.60;;;4.30;;
71080;SDS011;58740;50.672;18.690;2023-07-09T08:26:01;7.50;;;3.80;;
71080;SDS011;58740;50.672;18.690;2023-07-09T08:28:33;7.70;;;4.00;;
71080;SDS011;58740;50.672;18.690;2023-07-09T08:31:02;6.70;;;3.80;;
71080;SDS011;58740;50.672;18.690;2023-07-09T08:33:31;6.30;;;3.40;;
71080;SDS011;58740;50.672;18.690;2023-07-09T08:35:59;11.70;;;4.30;;
71080;SDS011;58740;50.672;18.690;2023-07-09T08:38:27;6.90;;;3.20;;
71080;SDS011;58740;50.672;18.690;2023-07-09T08:41:00;5.50;;;3.30;;
71080;SDS011;58740;50.672;18.690;2023-07-09T08:49:23;6.00;;;3.70;;
71080;SDS011;58740;50.672;18.690;2023-07-09T08:52:41;4.70;;;3.10;;
71080;SDS011;58740;50.672;18.690;2023-07-09T08:55:17;6.20;;;3.30;;
71080;SDS011;58740;50.672;18.690;2023-07-09T08:57:55;6.60;;;3.60;;
71080;SDS011;58740;50.672;18.690;2023-07-09T09:00:37;5.60;;;3.00;;
71080;SDS011;58740;50.672;18.690;2023-07-09T09:03:28;5.00;;;3.20;;
71080;SDS011;58740;50.672;18.690;2023-07-09T09:06:13;5.80;;;3.40;;
71080;SDS011;58740;50.672;18.690;2023-07-09T09:09:02;5.30;;;3.00;;
71080;SDS011;58740;50.672;18.690;2023-07-09T09:11:41;6.20;;;3.20;;
71080;SDS011;58740;50.672;18.690;2023-07-09T09:14:40;6.20;;;3.00;;
71080;SDS011;58740;50.672;18.690;2023-07-09T09:17:16;5.80;;;2.80;;
71080;SDS011;58740;50.672;18.690;2023-07-09T09:19:55;6.10;;;3.50;;
71080;SDS011;58740;50.672;18.690;2023-07-09T09:22:36;6.60;;;3.60;;
71080;SDS011;58740;50.672;18.690;2023-07-09T09:25:28;6.60;;;4.00;;
71080;SDS011;58740;50.672;18.690;2023-07-09T09:28:02;6.00;;;3.30;;
71080;SDS011;58740;50.672;18.690;2023-07-09T09:30:38;6.00;;;3.60;;
71080;SDS011;58740;50.672;18.690;2023-07-09T09:33:08;6.00;;;3.20;;
71080;SDS011;58740;50.672;18.690;2023-07-09T09:35:42;6.70;;;4.00;;
71080;SDS011;58740;50.672;18.690;2023-07-09T09:38:21;5.80;;;3.80;;
71080;SDS011;58740;50.672;18.690;2023-07-09T09:40:50;6.30;;;3.80;;
71080;SDS011;58740;50.672;18.690;2023-07-09T09:43:43;6.10;;;3.50;;
71080;SDS011;58740;50.672;18.690;2023-07-09T09:46:19;6.50;;;3.60;;
71080;SDS011;58740;50.672;18.690;2023-07-09T09:49:09;6.70;;;3.80;;
71080;SDS011;58740;50.672;18.690;2023-07-09T09:51:45;6.00;;;3.70;;
71080;SDS011;58740;50.672;18.690;2023-07-09T09:54:21;5.60;;;3.50;;
71080;SDS011;58740;50.672;18.690;2023-07-09T09:56:53;5.60;;;3.30;;
71080;SDS011;58740;50.672;18.690;2023-07-09T09:59:30;5.40;;;3.60;;
71080;SDS011;58740;50.672;18.690;2023-07-09T10:02:05;5.60;;;3.60;;
71080;SDS011;58740;50.672;18.690;2023-07-09T10:04:52;6.60;;;3.60;;
71080;SDS011;58740;50.672;18.690;2023-07-09T10:07:26;6.10;;;3.40;;
71080;SDS011;58740;50.672;18.690;2023-07-09T10:09:57;6.20;;;3.00;;
71080;SDS011;58740;50.672;18.690;2023-07-09T10:12:52;5.60;;;3.50;;
71080;SDS011;58740;50.672;18.690;2023-07-09T10:18:32;6.70;;;4.00;;
71080;SDS011;58740;50.672;18.690;2023-07-09T10:21:15;5.80;;;3.50;;
71080;SDS011;58740;50.672;18.690;2023-07-09T10:34:02;5.30;;;3.40;;
71080;SDS011;58740;50.672;18.690;2023-07-09T10:39:47;6.60;;;3.40;;
71080;SDS011;58740;50.672;18.690;2023-07-09T10:42:35;6.30;;;3.50;;
71080;SDS011;58740;50.672;18.690;2023-07-09T10:45:23;7.90;;;3.80;;
71080;SDS011;58740;50.672;18.690;2023-07-09T10:48:04;7.60;;;3.40;;
71080;SDS011;58740;50.672;18.690;2023-07-09T10:50:41;5.50;;;3.80;;
71080;SDS011;58740;50.672;18.690;2023-07-09T10:53:44;7.60;;;3.90;;
71080;SDS011;58740;50.672;18.690;2023-07-09T10:56:19;5.90;;;3.40;;
71080;SDS011;58740;50.672;18.690;2023-07-09T10:58:54;6.50;;;3.70;;
71080;SDS011;58740;50.672;18.690;2023-07-09T11:01:31;5.40;;;2.80;;
71080;SDS011;58740;50.672;18.690;2023-07-09T11:04:20;5.50;;;3.40;;
71080;SDS011;58740;50.672;18.690;2023-07-09T11:07:01;6.00;;;3.50;;
71080;SDS011;58740;50.672;18.690;2023-07-09T11:09:41;5.90;;;4.10;;
71080;SDS011;58740;50.672;18.690;2023-07-09T11:12:17;7.20;;;4.20;;
71080;SDS011;58740;50.672;18.690;2023-07-09T11:17:27;5.40;;;3.50;;
71080;SDS011;58740;50.672;18.690;2023-07-09T11:19:59;6.60;;;3.80;;
71080;SDS011;58740;50.672;18.690;2023-07-09T11:22:39;8.50;;;4.00;;
71080;SDS011;58740;50.672;18.690;2023-07-09T11:25:13;6.00;;;3.80;;
71080;SDS011;58740;50.672;18.690;2023-07-09T11:28:02;7.50;;;3.40;;
71080;SDS011;58740;50.672;18.690;2023-07-09T11:30:32;5.30;;;3.10;;
71080;SDS011;58740;50.672;18.690;2023-07-09T11:33:03;7.70;;;3.40;;
71080;SDS011;58740;50.672;18.690;2023-07-09T11:35:53;9.40;;;4.10;;
71080;SDS011;58740;50.672;18.690;2023-07-09T11:38:45;6.20;;;3.70;;
71080;SDS011;58740;50.672;18.690;2023-07-09T11:44:21;6.00;;;3.60;;
71080;SDS011;58740;50.672;18.690;2023-07-09T11:50:00;6.70;;;3.90;;
71080;SDS011;58740;50.672;18.690;2023-07-09T11:52:41;6.00;;;3.60;;
71080;SDS011;58740;50.672;18.690;2023-07-09T11:55:38;6.50;;;4.00;;
71080;SDS011;58740;50.672;18.690;2023-07-09T11:58:11;6.10;;;3.70;;
71080;SDS011;58740;50.672;18.690;2023-07-09T12:00:43;6.70;;;3.80;;
71080;SDS011;58740;50.672;18.690;2023-07-09T12:03:26;6.70;;;3.90;;
71080;SDS011;58740;50.672;18.690;2023-07-09T12:06:45;7.70;;;4.40;;
71080;SDS011;58740;50.672;18.690;2023-07-09T12:08:57;6.90;;;3.90;;
71080;SDS011;58740;50.672;18.690;2023-07-09T12:11:30;5.90;;;3.70;;
71080;SDS011;58740;50.672;18.690;2023-07-09T12:14:14;5.30;;;3.40;;
71080;SDS011;58740;50.672;18.690;2023-07-09T12:16:50;5.60;;;3.00;;
71080;SDS011;58740;50.672;18.690;2023-07-09T12:19:22;6.40;;;3.30;;
71080;SDS011;58740;50.672;18.690;2023-07-09T12:22:16;6.50;;;3.50;;
71080;SDS011;58740;50.672;18.690;2023-07-09T12:24:49;6.10;;;3.60;;
71080;SDS011;58740;50.672;18.690;2023-07-09T12:27:25;7.40;;;3.40;;
71080;SDS011;58740;50.672;18.690;2023-07-09T12:29:57;7.50;;;3.40;;
71080;SDS011;58740;50.672;18.690;2023-07-09T12:32:25;5.90;;;3.00;;
71080;SDS011;58740;50.672;18.690;2023-07-09T12:34:55;5.40;;;3.30;;
71080;SDS011;58740;50.672;18.690;2023-07-09T12:37:25;6.40;;;3.00;;
71080;SDS011;58740;50.672;18.690;2023-07-09T12:39:59;5.80;;;3.40;;
71080;SDS011;58740;50.672;18.690;2023-07-09T12:42:35;8.30;;;3.60;;
71080;SDS011;58740;50.672;18.690;2023-07-09T12:45:08;10.50;;;4.00;;
71080;SDS011;58740;50.672;18.690;2023-07-09T12:47:43;6.20;;;3.80;;
71080;SDS011;58740;50.672;18.690;2023-07-09T12:50:19;6.90;;;3.70;;
71080;SDS011;58740;50.672;18.690;2023-07-09T12:53:14;6.00;;;3.50;;
71080;SDS011;58740;50.672;18.690;2023-07-09T12:55:45;7.60;;;4.30;;
71080;SDS011;58740;50.672;18.690;2023-07-09T12:58:29;8.40;;;3.70;;
71080;SDS011;58740;50.672;18.690;2023-07-09T13:01:23;6.70;;;3.70;;
71080;SDS011;58740;50.672;18.690;2023-07-09T13:03:55;5.90;;;3.50;;
71080;SDS011;58740;50.672;18.690;2023-07-09T13:06:29;6.40;;;4.40;;
71080;SDS011;58740;50.672;18.690;2023-07-09T13:09:10;6.30;;;4.30;;
71080;SDS011;58740;50.672;18.690;2023-07-09T13:11:44;7.30;;;4.90;;
71080;SDS011;58740;50.672;18.690;2023-07-09T13:14:25;8.90;;;5.30;;
71080;SDS011;58740;50.672;18.690;2023-07-09T13:17:05;7.70;;;4.80;;
71080;SDS011;58740;50.672;18.690;2023-07-09T13:19:35;7.40;;;5.60;;
71080;SDS011;58740;50.672;18.690;2023-07-09T13:22:05;7.60;;;5.40;;
71080;SDS011;58740;50.672;18.690;2023-07-09T13:24:33;9.20;;;6.50;;
71080;SDS011;58740;50.672;18.690;2023-07-09T13:27:01;8.20;;;6.20;;
71080;SDS011;58740;50.672;18.690;2023-07-09T13:29:31;8.90;;;5.60;;
71080;SDS011;58740;50.672;18.690;2023-07-09T13:31:59;7.80;;;5.00;;
71080;SDS011;58740;50.672;18.690;2023-07-09T13:34:29;7.70;;;5.10;;
71080;SDS011;58740;50.672;18.690;2023-07-09T13:37:01;7.60;;;4.50;;
71080;SDS011;58740;50.672;18.690;2023-07-09T13:39:29;6.30;;;3.80;;
71080;SDS011;58740;50.672;18.690;2023-07-09T13:41:57;7.20;;;4.70;;
71080;SDS011;58740;50.672;18.690;2023-07-09T13:44:28;7.40;;;4.60;;
71080;SDS011;58740;50.672;18.690;2023-07-09T13:46:58;6.60;;;3.80;;
71080;SDS011;58740;50.672;18.690;2023-07-09T13:49:26;8.00;;;5.30;;
71080;SDS011;58740;50.672;18.690;2023-07-09T13:51:58;6.70;;;4.60;;
71080;SDS011;58740;50.672;18.690;2023-07-09T13:54:30;6.70;;;3.80;;
71080;SDS011;58740;50.672;18.690;2023-07-09T13:57:12;8.80;;;4.40;;
71080;SDS011;58740;50.672;18.690;2023-07-09T13:59:42;9.00;;;4.80;;
71080;SDS011;58740;50.672;18.690;2023-07-09T14:02:23;6.80;;;4.10;;
71080;SDS011;58740;50.672;18.690;2023-07-09T14:05:02;9.10;;;3.80;;
71080;SDS011;58740;50.672;18.690;2023-07-09T14:07:35;7.60;;;4.20;;
71080;SDS011;58740;50.672;18.690;2023-07-09T14:10:06;6.30;;;3.70;;
71080;SDS011;58740;50.672;18.690;2023-07-09T14:12:41;6.80;;;3.70;;
71080;SDS011;58740;50.672;18.690;2023-07-09T14:15:17;6.20;;;3.80;;
71080;SDS011;58740;50.672;18.690;2023-07-09T14:17:47;7.30;;;3.40;;
71080;SDS011;58740;50.672;18.690;2023-07-09T14:20:16;6.40;;;3.80;;
71080;SDS011;58740;50.672;18.690;2023-07-09T14:22:45;6.70;;;3.80;;
71080;SDS011;58740;50.672;18.690;2023-07-09T14:25:24;7.60;;;3.60;;
71080;SDS011;58740;50.672;18.690;2023-07-09T14:27:54;6.90;;;4.10;;
71080;SDS011;58740;50.672;18.690;2023-07-09T14:30:23;6.90;;;3.80;;
71080;SDS011;58740;50.672;18.690;2023-07-09T14:32:56;7.10;;;3.70;;
71080;SDS011;58740;50.672;18.690;2023-07-09T14:35:26;6.40;;;3.90;;
71080;SDS011;58740;50.672;18.690;2023-07-09T14:37:54;6.70;;;4.20;;
71080;SDS011;58740;50.672;18.690;2023-07-09T14:40:22;7.00;;;4.00;;
71080;SDS011;58740;50.672;18.690;2023-07-09T14:42:51;6.90;;;4.40;;
71080;SDS011;58740;50.672;18.690;2023-07-09T14:45:24;7.40;;;3.50;;
71080;SDS011;58740;50.672;18.690;2023-07-09T14:47:53;10.00;;;3.80;;
71080;SDS011;58740;50.672;18.690;2023-07-09T14:50:22;5.90;;;3.30;;
71080;SDS011;58740;50.672;18.690;2023-07-09T14:52:51;5.90;;;3.20;;
71080;SDS011;58740;50.672;18.690;2023-07-09T14:55:21;4.80;;;3.10;;
71080;SDS011;58740;50.672;18.690;2023-07-09T14:57:52;5.30;;;3.30;;
71080;SDS011;58740;50.672;18.690;2023-07-09T15:00:22;6.30;;;3.10;;
71080;SDS011;58740;50.672;18.690;2023-07-09T15:02:52;5.90;;;3.70;;
71080;SDS011;58740;50.672;18.690;2023-07-09T15:05:23;6.40;;;3.60;;
71080;SDS011;58740;50.672;18.690;2023-07-09T15:07:52;7.30;;;4.50;;
71080;SDS011;58740;50.672;18.690;2023-07-09T15:10:23;8.20;;;4.00;;
71080;SDS011;58740;50.672;18.690;2023-07-09T15:12:54;6.50;;;3.70;;
71080;SDS011;58740;50.672;18.690;2023-07-09T15:15:28;5.90;;;3.80;;
71080;SDS011;58740;50.672;18.690;2023-07-09T15:18:10;6.40;;;4.50;;
71080;SDS011;58740;50.672;18.690;2023-07-09T15:20:42;7.90;;;4.20;;
71080;SDS011;58740;50.672;18.690;2023-07-09T15:23:14;6.30;;;4.10;;
71080;SDS011;58740;50.672;18.690;2023-07-09T15:25:42;7.50;;;4.80;;
71080;SDS011;58740;50.672;18.690;2023-07-09T15:28:11;7.90;;;5.30;;
71080;SDS011;58740;50.672;18.690;2023-07-09T15:30:39;10.90;;;5.00;;
71080;SDS011;58740;50.672;18.690;2023-07-09T15:33:12;8.00;;;5.20;;
71080;SDS011;58740;50.672;18.690;2023-07-09T15:35:46;7.90;;;4.50;;
71080;SDS011;58740;50.672;18.690;2023-07-09T15:40:47;8.00;;;5.20;;
71080;SDS011;58740;50.672;18.690;2023-07-09T15:43:16;8.90;;;5.30;;